createdAt,value
2023-01-15T00:03:36.952Z,0
2023-01-15T00:08:38.777Z,0.88715
2023-01-15T00:13:40.563Z,0.88715
2023-01-15T00:18:42.606Z,0
2023-01-15T00:23:44.073Z,0.88715
2023-01-15T00:28:45.633Z,0.88715
2023-01-15T00:33:47.198Z,0
2023-01-15T00:38:48.648Z,0.88715
2023-01-15T00:43:50.382Z,0
2023-01-15T00:48:53.003Z,0
2023-01-15T00:53:54.729Z,0
2023-01-15T00:58:56.518Z,0
2023-01-15T01:03:58.361Z,0
2023-01-15T01:09:00.129Z,0.88715
2023-01-15T01:14:01.902Z,0.88715
2023-01-15T01:19:03.881Z,0
2023-01-15T01:24:05.692Z,0
2023-01-15T01:29:07.484Z,0
2023-01-15T01:34:08.964Z,0
2023-01-15T01:39:10.429Z,0
2023-01-15T01:44:11.886Z,0.88715
2023-01-15T01:49:14.285Z,0
2023-01-15T01:54:16.019Z,0
2023-01-15T01:59:17.831Z,0.88715
2023-01-15T02:04:19.681Z,0
2023-01-15T02:09:21.415Z,0.88715
2023-01-15T02:14:23.275Z,0.88715
2023-01-15T02:19:25.296Z,0.88715
2023-01-15T02:24:26.898Z,0.88715
2023-01-15T02:29:28.348Z,0.88715
2023-01-15T02:34:29.828Z,0
2023-01-15T02:39:31.572Z,0.88715
2023-01-15T02:44:33.075Z,0.88715
2023-01-15T02:49:34.968Z,0.88715
2023-01-15T02:54:36.444Z,0.88715
2023-01-15T02:59:38.245Z,0
2023-01-15T03:04:39.860Z,0
2023-01-15T03:09:41.608Z,1.3463
2023-01-15T03:14:43.363Z,2.84435
2023-01-15T03:19:45.243Z,7.65375
2023-01-15T03:24:46.944Z,17.68635
2023-01-15T03:29:48.625Z,37.8067
2023-01-15T03:34:50.430Z,57.503
2023-01-15T03:39:52.249Z,84.7789
2023-01-15T03:44:53.899Z,116.3333
2023-01-15T03:49:55.644Z,149.6029
2023-01-15T03:54:57.154Z,185.1962
2023-01-15T03:59:58.931Z,215.4043
2023-01-15T04:05:00.673Z,238.0328
2023-01-15T04:10:02.553Z,266.71015
2023-01-15T04:15:04.321Z,297.7112
2023-01-15T04:20:06.276Z,351.7838
2023-01-15T04:25:08.119Z,826.4345
2023-01-15T04:30:09.890Z,359.78745
2023-01-15T04:35:11.647Z,371.90415
2023-01-15T04:40:13.357Z,401.0797
2023-01-15T04:45:15.133Z,418.2127
2023-01-15T04:50:16.776Z,425.2028
2023-01-15T04:55:18.554Z,450.5239
2023-01-15T05:00:20.029Z,475.9933
2023-01-15T05:05:21.835Z,536.6871
2023-01-15T05:10:23.605Z,552.2532
2023-01-15T05:15:25.404Z,582.7389
2023-01-15T05:20:27.246Z,603.3023
2023-01-15T05:25:28.667Z,618.79425
2023-01-15T05:30:30.353Z,624.052
2023-01-15T05:35:31.962Z,619.9978
2023-01-15T05:40:33.485Z,629.88765
2023-01-15T05:45:35.276Z,632.2359
2023-01-15T05:50:37.031Z,631.74325
2023-01-15T05:55:38.479Z,628.09595
2023-01-15T06:00:39.961Z,642.23145
2023-01-15T06:05:41.626Z,681.63745
2023-01-15T06:10:43.064Z,710.55485
2023-01-15T06:15:45.001Z,752.3904
2023-01-15T06:20:49.249Z,781.4263
2023-01-15T06:25:51.312Z,793.69245
2023-01-15T06:30:52.965Z,829.7208
2023-01-15T06:35:54.805Z,857.92725
2023-01-15T06:40:56.443Z,863.7936
2023-01-15T06:45:57.990Z,894.72585
2023-01-15T06:50:59.744Z,922.1619
2023-01-15T06:56:01.403Z,949.2424
2023-01-15T07:01:03.285Z,954.33845
2023-01-15T07:06:04.995Z,966.1305
2023-01-15T07:11:06.724Z,995.5813
2023-01-15T07:16:08.611Z,1017.68435
2023-01-15T07:21:10.643Z,1022.72095
2023-01-15T07:26:12.398Z,1045.6535
2023-01-15T07:31:14.184Z,1052.7049
2023-01-15T07:36:15.998Z,1057.7417
2023-01-15T07:41:17.448Z,1074.9856
2023-01-15T07:46:19.201Z,1091.28135
2023-01-15T07:51:21.254Z,1102.89565
2023-01-15T07:56:22.991Z,1114.27295
2023-01-15T08:01:24.808Z,1141.7091
2023-01-15T08:06:26.644Z,1165.5898
2023-01-15T08:11:28.342Z,1196.5221
2023-01-15T08:16:30.080Z,1202.7441
2023-01-15T08:21:31.722Z,1206.77355
2023-01-15T08:26:33.315Z,1226.32845
2023-01-15T08:31:34.870Z,1256.1942
2023-01-15T08:36:36.375Z,1271.9567
2023-01-15T08:41:37.855Z,1291.808
2023-01-15T08:46:39.448Z,1288.07455
2023-01-15T08:51:41.154Z,1333.11025
2023-01-15T08:56:42.602Z,1337.55455
2023-01-15T09:01:44.239Z,1363.62775
2023-01-15T09:06:46.061Z,1377.5533
2023-01-15T09:11:47.601Z,1405.40425
2023-01-15T09:16:49.107Z,1407.83385
2023-01-15T09:21:50.962Z,1418.08535
2023-01-15T09:26:52.727Z,1446.82515
2023-01-15T09:31:54.470Z,1463.53585
2023-01-15T09:36:56.059Z,1483.86095
2023-01-15T09:41:57.909Z,1499.2681
2023-01-15T09:46:59.356Z,1509.46045
2023-01-15T09:52:01.257Z,1518.7046
2023-01-15T09:57:02.716Z,1559.5328
2023-01-15T10:02:04.205Z,1582.1692
2023-01-15T10:07:05.769Z,1585.1912
2023-01-15T10:12:07.414Z,1587.73935
2023-01-15T10:17:08.947Z,1601.4278
2023-01-15T10:22:11.023Z,1628.39
2023-01-15T10:27:12.501Z,1527.23685
2023-01-15T10:32:14.098Z,1663.4111
2023-01-15T10:37:15.593Z,1691.3215
2023-01-15T10:42:17.041Z,1705.18795
2023-01-15T10:47:18.607Z,1707.1435
2023-01-15T10:52:20.253Z,1729.60235
2023-01-15T10:57:21.680Z,1742.4023
2023-01-15T11:02:23.376Z,1762.0759
2023-01-15T11:07:24.942Z,1781.27545
2023-01-15T11:12:26.427Z,1801.00825
2023-01-15T11:17:27.932Z,1804.8601
2023-01-15T11:22:29.789Z,1812.56355
2023-01-15T11:27:31.234Z,1804.62325
2023-01-15T11:32:32.792Z,1848.77015
2023-01-15T11:37:34.490Z,1870.6364
2023-01-15T11:42:36.056Z,1857.30375
2023-01-15T11:47:37.677Z,1910.1697
2023-01-15T11:52:39.509Z,1937.15085
2023-01-15T11:57:41.176Z,1983.9386
2023-01-15T12:02:42.661Z,2049.42625
2023-01-15T12:07:44.471Z,2074.156
2023-01-15T12:12:46.191Z,2102.74205
2023-01-15T12:17:47.952Z,2119.55945
2023-01-15T12:22:50.018Z,2161.23775
2023-01-15T12:27:51.772Z,2205.0933
2023-01-15T12:32:53.834Z,2249.4452
2023-01-15T12:37:55.623Z,2295.7899
2023-01-15T12:42:57.207Z,2357.18165
2023-01-15T12:47:58.688Z,2395.1348
2023-01-15T12:53:00.969Z,2440.5744
2023-01-15T12:58:02.539Z,2466.0591
2023-01-15T13:03:04.283Z,2520.07655
2023-01-15T13:08:06.175Z,2539.714
2023-01-15T13:13:07.734Z,2591.22145
2023-01-15T13:18:09.308Z,2627.1818
2023-01-15T13:23:11.377Z,2672.2715
2023-01-15T13:28:12.931Z,2694.63955
2023-01-15T13:33:14.698Z,2728.7364
2023-01-15T13:38:16.487Z,2768.73565
2023-01-15T13:43:18.166Z,2780.27815
2023-01-15T13:48:19.843Z,2783.8893
2023-01-15T13:53:21.813Z,2855.5361
2023-01-15T13:58:23.550Z,2875.5253
2023-01-15T14:03:25.247Z,2881.9032
2023-01-15T14:08:26.783Z,2873.5098
2023-01-15T14:13:28.549Z,2895.8227
2023-01-15T14:18:30.055Z,2885.4935
2023-01-15T14:23:31.760Z,2875.84695
2023-01-15T14:28:33.369Z,2832.41545
2023-01-15T14:33:34.837Z,2752.3391
2023-01-15T14:38:36.441Z,2704.0739
2023-01-15T14:43:38.218Z,2666.8187
2023-01-15T14:48:39.707Z,2638.0102
2023-01-15T14:53:41.511Z,2579.4918
2023-01-15T14:58:43.148Z,2535.4138
2023-01-15T15:03:44.846Z,2457.51285
2023-01-15T15:08:46.572Z,2324.63605
2023-01-15T15:13:48.459Z,2213.0966
2023-01-15T15:18:49.945Z,2067.9738
2023-01-15T15:23:51.898Z,1932.77145
2023-01-15T15:28:53.677Z,1762.12225
2023-01-15T15:33:55.278Z,1640.9724
2023-01-15T15:38:56.809Z,1536.47635
2023-01-15T15:43:58.415Z,1414.29395
2023-01-15T15:49:00.230Z,1290.6188
2023-01-15T15:54:02.370Z,1124.61885
2023-01-15T15:59:04.154Z,950.7807
2023-01-15T16:04:06.051Z,798.85225
2023-01-15T16:09:07.858Z,658.22855
2023-01-15T16:14:09.532Z,546.98385
2023-01-15T16:19:11.320Z,429.9299
2023-01-15T16:24:13.309Z,324.4583
2023-01-15T16:29:15.057Z,243.0718
2023-01-15T16:34:16.907Z,196.85455
2023-01-15T16:39:18.695Z,158.6048
2023-01-15T16:44:20.348Z,124.7077
2023-01-15T16:49:22.308Z,99.128
2023-01-15T16:54:24.471Z,74.71015
2023-01-15T16:59:26.338Z,50.23715
2023-01-15T17:04:28.390Z,33.8971
2023-01-15T17:09:30.396Z,16.8934
2023-01-15T17:14:32.033Z,6.8608
2023-01-15T17:19:33.891Z,3.4369
2023-01-15T17:24:35.780Z,1.71845
2023-01-15T17:29:37.792Z,0.4148
2023-01-15T17:34:39.808Z,0
2023-01-15T17:39:41.677Z,0.88715
2023-01-15T17:44:43.331Z,0.88715
2023-01-15T17:49:45.236Z,0.88715
2023-01-15T17:54:47.372Z,0.88715
2023-01-15T17:59:49.126Z,0.88715
2023-01-15T18:04:50.857Z,0
2023-01-15T18:09:52.934Z,0.88715
2023-01-15T18:14:54.622Z,0
2023-01-15T18:19:56.561Z,0.88715
2023-01-15T18:24:58.651Z,0
2023-01-15T18:30:00.649Z,0
2023-01-15T18:35:02.511Z,0
2023-01-15T18:40:04.558Z,0.88715
2023-01-15T18:45:06.812Z,0.88715
2023-01-15T18:50:08.898Z,0.88715
2023-01-15T18:55:11.406Z,0.88715
2023-01-15T19:00:13.441Z,0
2023-01-15T19:05:15.698Z,0.88715
2023-01-15T19:10:17.613Z,0
2023-01-15T19:15:19.683Z,0.88715
2023-01-15T19:20:21.746Z,0.88715
2023-01-15T19:25:24.510Z,0
2023-01-15T19:30:26.567Z,0.88715
2023-01-15T19:35:28.496Z,0
2023-01-15T19:40:30.681Z,0.88715
2023-01-15T19:45:32.224Z,0.88715
2023-01-15T19:50:33.870Z,0
2023-01-15T19:55:35.916Z,0.88715
2023-01-15T20:00:37.557Z,0.88715
2023-01-15T20:05:39.044Z,0.88715
2023-01-15T20:10:40.819Z,0.88715
2023-01-15T20:15:42.300Z,0
2023-01-15T20:20:43.757Z,0.88715
2023-01-15T20:25:45.521Z,0.88715
2023-01-15T20:30:47.108Z,0
2023-01-15T20:35:48.700Z,0
2023-01-15T20:40:50.518Z,0.88715
2023-01-15T20:45:52.297Z,0.88715
2023-01-15T20:50:54.104Z,0
2023-01-15T20:55:57.639Z,0.88715
2023-01-15T21:00:59.488Z,0
2023-01-15T21:06:03.157Z,0
2023-01-15T21:11:06.104Z,0
2023-01-15T21:16:07.712Z,0
2023-01-15T21:21:09.218Z,0.88715
2023-01-15T21:26:11.161Z,0
2023-01-15T21:31:12.950Z,0
2023-01-15T21:36:14.414Z,0.88715
2023-01-15T21:41:15.948Z,0
2023-01-15T21:46:17.543Z,0
2023-01-15T21:51:18.964Z,0
2023-01-15T21:56:20.915Z,0
2023-01-15T22:01:22.711Z,0.88715
2023-01-15T22:06:24.509Z,0
2023-01-15T22:11:26.337Z,0.88715
2023-01-15T22:16:28.103Z,0
2023-01-15T22:21:29.892Z,0.88715
2023-01-15T22:26:31.817Z,0
2023-01-15T22:31:33.566Z,0
2023-01-15T22:36:35.169Z,0
2023-01-15T22:41:36.769Z,0.88715
2023-01-15T22:46:38.448Z,0
2023-01-15T22:51:39.966Z,0
2023-01-15T22:56:41.745Z,0.88715
2023-01-15T23:01:43.381Z,0
2023-01-15T23:06:44.908Z,0
2023-01-15T23:11:46.641Z,0.88715
2023-01-15T23:16:48.399Z,0.88715
2023-01-15T23:21:50.190Z,0
2023-01-15T23:26:52.545Z,0.88715
2023-01-15T23:31:54.337Z,0
2023-01-15T23:36:56.104Z,0
2023-01-15T23:41:57.753Z,0.88715
2023-01-15T23:46:59.535Z,0.88715
2023-01-15T23:52:01.038Z,0.88715
2023-01-15T23:57:02.932Z,0.88715
